Time;durP1;ratioP1;P1;durP2;ratioP2;P2;SDS_P1;SDS_P2;PMS_P1;PMS_P2;Temp;Humidity;BMP_temperature;BMP_pressure;BME280_temperature;BME280_humidity;BME280_pressure;Samples;Min_cycle;Max_cycle;Signal;HPM_P1;HPM_P2
2023/12/12 00:01:38;;;;;;;6.50;2.63;;;;;;;-28.16;55.34;100546.34;6076558;29;20051;-65
2023/12/12 00:04:40;;;;;;;2.55;1.55;;;;;;;-28.32;55.52;100542.34;6080083;29;20072;-66
2023/12/12 00:07:42;;;;;;;3.17;2.90;;;;;;;-28.30;54.77;100545.94;6079381;29;20537;-65
2023/12/12 00:10:43;;;;;;;6.20;2.38;;;;;;;-28.34;55.92;100548.63;6080083;29;20060;-65
2023/12/12 00:13:44;;;;;;;3.47;3.15;;;;;;;-28.38;55.60;100548.91;6079785;29;20051;-66
2023/12/12 00:16:46;;;;;;;1.50;1.50;;;;;;;-28.37;55.59;100548.19;6079195;29;20434;-65
2023/12/12 00:19:47;;;;;;;3.30;2.70;;;;;;;-28.39;55.63;100549.56;6079418;29;20056;-65
2023/12/12 00:22:49;;;;;;;3.33;2.58;;;;;;;-28.43;55.35;100552.31;6079656;29;20066;-66
2023/12/12 00:25:50;;;;;;;2.03;1.83;;;;;;;-28.29;55.30;100557.63;6079657;29;20418;-66
2023/12/12 00:28:51;;;;;;;2.78;2.63;;;;;;;-28.39;55.86;100549.56;6079183;29;20056;-65
2023/12/12 00:31:53;;;;;;;3.70;2.70;;;;;;;-28.37;54.93;100553.16;6078727;29;20438;-65
2023/12/12 00:34:54;;;;;;;4.72;3.13;;;;;;;-28.34;55.34;100553.59;6062792;29;20536;-66
2023/12/12 00:37:55;;;;;;;2.75;2.55;;;;;;;-28.27;55.40;100561.22;6062458;29;20053;-66
2023/12/12 00:40:57;;;;;;;3.00;2.70;;;;;;;-28.28;55.37;100564.34;6078980;29;20059;-65
2023/12/12 00:43:58;;;;;;;2.63;2.42;;;;;;;-28.24;55.39;100571.53;6079174;29;20040;-66
2023/12/12 00:47:00;;;;;;;2.78;2.40;;;;;;;-28.23;55.26;100577.38;6079026;29;20062;-65
2023/12/12 00:50:02;;;;;;;2.30;1.73;;;;;;;-28.18;55.58;100584.78;6078726;29;20052;-65
2023/12/12 00:53:07;;;;;;;2.08;2.00;;;;;;;-28.18;55.03;100589.72;6078888;29;20059;-66
2023/12/12 00:56:12;;;;;;;2.20;2.10;;;;;;;-28.15;55.42;100585.22;6078815;29;20060;-65
2023/12/12 00:59:16;;;;;;;2.80;2.05;;;;;;;-28.11;55.90;100583.16;6078995;29;20048;-66
2023/12/12 01:02:17;;;;;;;2.20;2.05;;;;;;;-28.15;55.73;100587.69;6078547;29;20053;-65
2023/12/12 01:05:20;;;;;;;5.03;3.10;;;;;;;-28.21;55.96;100591.75;6078833;29;20060;-66
2023/12/12 01:08:24;;;;;;;3.63;2.70;;;;;;;-28.26;55.34;100587.72;6078709;29;20495;-65
2023/12/12 01:11:26;;;;;;;4.82;3.00;;;;;;;-28.26;56.16;100582.78;6077848;29;20056;-65
2023/12/12 01:14:31;;;;;;;3.80;2.03;;;;;;;-28.28;55.10;100579.19;6078626;29;20055;-66
2023/12/12 01:17:34;;;;;;;2.88;2.67;;;;;;;-28.27;55.55;100588.41;6078589;29;20465;-65
2023/12/12 01:20:36;;;;;;;5.05;2.55;;;;;;;-28.36;55.68;100594.47;6077517;29;20052;-66
2023/12/12 01:23:49;;;;;;;3.15;1.95;;;;;;;-28.41;55.83;100596.31;6078086;29;20507;-65
2023/12/12 01:26:53;;;;;;;4.13;2.58;;;;;;;-28.49;56.08;100598.38;6078169;29;20055;-66
2023/12/12 01:29:55;;;;;;;2.60;2.40;;;;;;;-28.42;55.51;100608.47;6061123;29;20044;-65
2023/12/12 01:32:57;;;;;;;2.97;2.38;;;;;;;-28.50;55.65;100597.47;6077583;29;20059;-65
2023/12/12 01:35:59;;;;;;;2.78;2.47;;;;;;;-28.44;56.28;100614.75;6077312;29;20063;-66
2023/12/12 01:39:02;;;;;;;3.00;2.78;;;;;;;-28.51;55.12;100603.09;6077282;29;20546;-65
2023/12/12 01:42:03;;;;;;;8.48;3.75;;;;;;;-28.52;55.25;100605.34;6077860;29;20053;-66
2023/12/12 01:45:05;;;;;;;2.70;2.50;;;;;;;-28.49;55.35;100609.16;6076790;29;20052;-65
2023/12/12 01:48:07;;;;;;;3.25;2.95;;;;;;;-28.45;56.17;100622.84;6076548;29;20416;-65
2023/12/12 01:51:14;;;;;;;2.42;2.17;;;;;;;-28.45;55.99;100618.81;6077803;29;20048;-65
2023/12/12 01:54:18;;;;;;;3.25;2.95;;;;;;;-28.38;55.34;100620.56;6077263;29;20419;-66
2023/12/12 01:57:23;;;;;;;3.00;2.80;;;;;;;-28.36;55.13;100619.19;6076886;29;20056;-64
2023/12/12 02:00:26;;;;;;;9.02;2.67;;;;;;;-28.39;55.62;100613.81;6029861;29;20056;-65
2023/12/12 02:03:29;;;;;;;9.38;2.97;;;;;;;-28.34;55.59;100624.38;6077274;29;20511;-66
2023/12/12 02:06:31;;;;;;;6.90;2.88;;;;;;;-28.38;55.46;100628.00;6077439;29;20135;-65
2023/12/12 02:09:32;;;;;;;3.38;3.17;;;;;;;-28.36;55.72;100619.19;6077063;29;20056;-66
2023/12/12 02:12:35;;;;;;;3.63;3.15;;;;;;;-28.34;55.98;100627.75;6059723;29;20052;-65
2023/12/12 02:15:37;;;;;;;4.63;2.55;;;;;;;-28.32;55.87;100636.28;6076548;29;20570;-65
2023/12/12 02:18:39;;;;;;;5.78;3.97;;;;;;;-28.29;56.20;100635.84;6076883;29;20053;-66
2023/12/12 02:21:41;;;;;;;3.42;2.47;;;;;;;-28.26;55.40;100637.16;6077034;29;20067;-66
2023/12/12 02:24:48;;;;;;;6.72;2.85;;;;;;;-28.29;55.37;100643.25;6077018;29;20052;-66
2023/12/12 02:27:52;;;;;;;4.95;2.53;;;;;;;-28.30;55.42;100656.25;6061060;29;20518;-65
2023/12/12 02:30:54;;;;;;;11.65;3.78;;;;;;;-28.39;55.29;100643.47;6076978;29;20045;-66
2023/12/12 02:33:56;;;;;;;5.75;3.00;;;;;;;-28.44;55.92;100634.53;6075903;29;20052;-65
2023/12/12 02:36:57;;;;;;;8.73;2.67;;;;;;;-28.50;55.48;100623.75;6076711;29;20041;-66
2023/12/12 02:40:01;;;;;;;3.20;2.58;;;;;;;-28.54;56.21;100631.41;6076846;29;20139;-66
2023/12/12 02:43:08;;;;;;;3.20;2.47;;;;;;;-28.70;56.06;100629.16;6076643;29;20048;-66
2023/12/12 02:46:09;;;;;;;3.55;3.25;;;;;;;-28.65;56.11;100645.56;6076238;29;20045;-66
2023/12/12 02:49:11;;;;;;;4.30;2.50;;;;;;;-28.64;55.06;100667.16;6076229;29;20128;-65
2023/12/12 02:52:16;;;;;;;3.85;2.60;;;;;;;-28.63;55.17;100661.53;6075193;29;20053;-65
2023/12/12 02:55:18;;;;;;;3.28;3.03;;;;;;;-28.67;55.41;100649.41;6031729;29;20144;-65
2023/12/12 02:58:19;;;;;;;6.03;2.83;;;;;;;-28.66;55.92;100651.19;6029884;29;20156;-65
2023/12/12 03:01:21;;;;;;;6.75;3.50;;;;;;;-28.67;55.38;100659.28;6029991;29;20070;-65
2023/12/12 03:04:22;;;;;;;3.03;2.53;;;;;;;-28.71;56.31;100646.25;6029757;29;20049;-66
2023/12/12 03:07:23;;;;;;;8.27;2.40;;;;;;;-28.73;55.43;100646.00;6030108;29;20057;-65
2023/12/12 03:10:25;;;;;;;3.30;2.13;;;;;;;-28.66;55.93;100655.25;6029529;29;20065;-65
2023/12/12 03:13:28;;;;;;;4.40;3.17;;;;;;;-28.68;56.05;100662.41;6030357;29;20529;-65
2023/12/12 03:16:30;;;;;;;9.98;4.38;;;;;;;-28.68;56.28;100662.41;6030287;29;20132;-65
2023/12/12 03:19:31;;;;;;;13.63;6.65;;;;;;;-28.76;56.07;100650.50;6029855;29;20085;-65
2023/12/12 03:22:33;;;;;;;4.85;4.03;;;;;;;-28.71;56.33;100661.97;6028856;29;20048;-65
2023/12/12 03:25:37;;;;;;;3.45;3.15;;;;;;;-28.65;55.72;100676.78;6029590;29;20049;-65
2023/12/12 03:28:39;;;;;;;4.57;3.33;;;;;;;-28.72;55.59;100655.25;6031513;29;20504;-66
2023/12/12 03:31:43;;;;;;;3.53;2.40;;;;;;;-28.72;56.03;100659.28;6030898;29;20053;-66
2023/12/12 03:34:44;;;;;;;8.35;3.47;;;;;;;-28.58;56.18;100663.75;6029794;29;20049;-65
2023/12/12 03:37:45;;;;;;;3.50;3.05;;;;;;;-28.66;55.20;100666.00;6032829;29;20136;-65
2023/12/12 03:40:50;;;;;;;2.00;2.00;;;;;;;-28.59;55.97;100661.97;6034574;29;20064;-65
2023/12/12 03:43:51;;;;;;;7.00;3.92;;;;;;;-28.67;55.20;100654.34;6034542;29;20144;-66
2023/12/12 03:46:55;;;;;;;4.10;2.95;;;;;;;-28.67;55.47;100661.75;6033129;29;20049;-65
2023/12/12 03:49:59;;;;;;;3.67;3.05;;;;;;;-28.64;56.04;100668.69;6034199;29;20140;-66
2023/12/12 03:53:04;;;;;;;5.15;2.22;;;;;;;-28.56;55.44;100662.41;6022108;29;20124;-66
2023/12/12 03:56:07;;;;;;;4.18;3.10;;;;;;;-28.53;55.58;100668.69;6079225;29;20068;-65
2023/12/12 03:59:11;;;;;;;3.10;2.90;;;;;;;-28.58;56.20;100663.75;6080212;29;20135;-66
2023/12/12 04:02:16;;;;;;;2.65;2.50;;;;;;;-28.55;55.94;100661.72;6080383;29;20053;-66
2023/12/12 04:05:17;;;;;;;4.32;2.97;;;;;;;-28.53;55.79;100666.22;6080199;29;20071;-66
2023/12/12 04:08:22;;;;;;;8.82;4.35;;;;;;;-28.49;55.59;100666.00;6079685;29;20419;-66
2023/12/12 04:11:27;;;;;;;3.10;2.00;;;;;;;-28.42;55.63;100667.78;6063274;29;20044;-65
2023/12/12 04:14:29;;;;;;;5.05;3.42;;;;;;;-28.39;55.77;100674.03;6079557;29;20430;-66
2023/12/12 04:17:30;;;;;;;6.30;3.28;;;;;;;-28.37;55.82;100671.78;6079688;29;20041;-66
2023/12/12 04:20:32;;;;;;;3.97;3.47;;;;;;;-28.44;55.73;100660.16;6079281;29;20072;-66
2023/12/12 04:23:38;;;;;;;6.78;3.53;;;;;;;-28.34;55.79;100672.22;6079413;29;20040;-66
2023/12/12 04:26:42;;;;;;;10.85;3.55;;;;;;;-28.41;55.53;100662.19;6079648;29;20427;-66
2023/12/12 04:29:45;;;;;;;8.52;4.28;;;;;;;-28.37;55.32;100681.69;6079793;29;20044;-66
2023/12/12 04:32:47;;;;;;;8.68;4.22;;;;;;;-28.48;55.77;100671.84;6079222;29;20699;-66
2023/12/12 04:35:48;;;;;;;7.22;4.35;;;;;;;-28.34;55.86;100679.66;6062754;29;20053;-67
2023/12/12 04:38:52;;;;;;;4.50;3.90;;;;;;;-28.23;55.13;100681.22;6079639;29;20048;-66
2023/12/12 04:42:00;;;;;;;6.82;3.80;;;;;;;-28.27;55.49;100666.59;6079270;29;20075;-66
2023/12/12 04:45:05;;;;;;;6.57;3.90;;;;;;;-28.13;55.60;100674.44;6079455;29;20051;-67
2023/12/12 04:48:09;;;;;;;15.18;5.47;;;;;;;-28.02;55.04;100693.28;6078976;29;20075;-66
2023/12/12 04:51:14;;;;;;;11.95;5.80;;;;;;;-28.03;56.09;100686.56;6078976;29;20388;-67
2023/12/12 04:54:18;;;;;;;5.38;3.75;;;;;;;-27.98;55.82;100683.19;6079296;29;20064;-66
2023/12/12 04:57:19;;;;;;;11.70;5.10;;;;;;;-27.90;55.68;100690.13;6078540;29;20064;-66
2023/12/12 05:00:21;;;;;;;5.90;4.18;;;;;;;-27.78;55.11;100691.00;6062050;29;20053;-65
2023/12/12 05:03:23;;;;;;;8.57;3.90;;;;;;;-27.75;55.08;100686.44;6077972;29;20062;-66
2023/12/12 05:06:25;;;;;;;15.32;4.25;;;;;;;-27.65;55.48;100708.44;6077929;29;20056;-67
2023/12/12 05:09:27;;;;;;;9.17;4.33;;;;;;;-27.61;54.64;100708.22;6078830;29;20059;-66
2023/12/12 05:12:31;;;;;;;7.55;4.45;;;;;;;-27.51;54.45;100723.69;6078407;29;20095;-67
2023/12/12 05:15:33;;;;;;;12.23;4.32;;;;;;;-27.42;54.56;100727.50;6078169;29;20063;-66
2023/12/12 05:18:34;;;;;;;8.05;4.15;;;;;;;-27.32;55.17;100728.13;6077606;29;20064;-67
2023/12/12 05:21:40;;;;;;;6.47;4.47;;;;;;;-27.24;55.01;100727.63;6078399;29;20049;-66
2023/12/12 05:24:41;;;;;;;3.90;3.58;;;;;;;-27.21;54.06;100723.81;6078342;29;20044;-67
2023/12/12 05:27:43;;;;;;;14.43;5.70;;;;;;;-27.09;54.65;100732.94;6061194;29;20072;-65
2023/12/12 05:30:47;;;;;;;9.30;4.43;;;;;;;-26.97;53.96;100729.69;6078155;29;20036;-66
2023/12/12 05:33:50;;;;;;;7.38;3.78;;;;;;;-26.79;54.20;100722.38;6078394;29;20056;-66
2023/12/12 05:36:52;;;;;;;5.82;4.00;;;;;;;-26.55;54.23;100721.53;6078187;29;20068;-66
2023/12/12 05:39:56;;;;;;;5.18;4.18;;;;;;;-26.34;54.64;100714.59;6046454;29;20151;-66
2023/12/12 05:42:58;;;;;;;21.30;8.07;;;;;;;-26.17;53.67;100699.56;6062889;29;20060;-66
2023/12/12 05:46:00;;;;;;;4.70;4.22;;;;;;;-26.00;53.31;100706.84;6061871;29;20040;-66
2023/12/12 05:49:01;;;;;;;11.07;4.53;;;;;;;-25.88;53.55;100703.53;6077920;29;20143;-66
2023/12/12 05:52:04;;;;;;;14.23;5.75;;;;;;;-25.79;53.67;100712.91;6077779;29;20048;-66
2023/12/12 05:55:05;;;;;;;11.90;5.88;;;;;;;-25.68;53.08;100696.28;6077596;29;20049;-66
2023/12/12 05:58:09;;;;;;;13.02;6.45;;;;;;;-25.46;53.11;100712.53;6076959;29;20056;-67
2023/12/12 06:01:10;;;;;;;8.45;4.82;;;;;;;-25.34;53.08;100712.38;6076514;29;20048;-67
2023/12/12 06:04:12;;;;;;;18.45;7.28;;;;;;;-25.21;53.34;100720.81;6076956;29;20065;-67
2023/12/12 06:07:14;;;;;;;8.20;6.78;;;;;;;-25.06;53.32;100720.34;6077056;29;20200;-66
2023/12/12 06:10:18;;;;;;;10.77;6.05;;;;;;;-25.00;53.15;100708.72;6076944;29;20400;-66
2023/12/12 06:13:20;;;;;;;14.15;6.60;;;;;;;-24.91;52.79;100721.47;6077624;29;20055;-67
2023/12/12 06:16:24;;;;;;;12.35;7.30;;;;;;;-24.80;52.94;100712.97;6077239;29;20040;-67
2023/12/12 06:19:25;;;;;;;14.00;7.28;;;;;;;-24.60;52.85;100710.66;6060443;29;20048;-67
2023/12/12 06:22:27;;;;;;;20.17;6.88;;;;;;;-24.51;52.74;100710.28;6076523;29;20072;-66
2023/12/12 06:25:29;;;;;;;18.23;6.93;;;;;;;-24.36;52.75;100710.47;6076958;29;20139;-66
2023/12/12 06:28:34;;;;;;;18.95;8.35;;;;;;;-24.21;52.50;100700.03;6076971;29;20044;-67
2023/12/12 06:31:36;;;;;;;21.98;9.43;;;;;;;-24.11;52.39;100710.50;6076081;29;20055;-67
2023/12/12 06:34:37;;;;;;;15.37;8.50;;;;;;;-24.12;52.28;100725.22;6076334;29;20056;-66
2023/12/12 06:37:42;;;;;;;17.67;7.57;;;;;;;-24.19;52.02;100716.06;6076670;29;20050;-67
2023/12/12 06:40:46;;;;;;;11.52;4.93;;;;;;;-24.29;52.51;100718.03;6076681;29;20052;-67
2023/12/12 06:43:49;;;;;;;21.38;9.20;;;;;;;-24.31;52.51;100720.34;6076813;29;20048;-66
2023/12/12 06:46:51;;;;;;;25.42;10.45;;;;;;;-24.36;52.50;100721.31;6059873;29;20056;-66
2023/12/12 06:49:55;;;;;;;21.77;9.05;;;;;;;-24.32;52.46;100720.13;6076601;29;20052;-67
2023/12/12 06:52:57;;;;;;;24.70;9.88;;;;;;;-24.22;52.67;100715.66;6076253;29;20044;-66
2023/12/12 06:55:58;;;;;;;26.70;9.80;;;;;;;-24.14;52.50;100722.53;6076179;29;20101;-66
2023/12/12 06:59:02;;;;;;;16.45;7.72;;;;;;;-24.00;52.14;100729.31;6076469;29;20414;-67
2023/12/12 07:02:03;;;;;;;16.10;7.35;;;;;;;-23.95;52.40;100742.38;6059280;29;20430;-66
2023/12/12 07:05:08;;;;;;;27.80;9.32;;;;;;;-23.93;52.59;100736.00;6076309;29;20045;-66
2023/12/12 07:08:12;;;;;;;22.58;12.27;;;;;;;-23.77;52.34;100731.41;6076548;29;20036;-67
2023/12/12 07:11:18;;;;;;;17.67;8.98;;;;;;;-23.65;52.52;100736.34;6078690;29;20052;-67
2023/12/12 07:14:22;;;;;;;24.83;9.88;;;;;;;-22.80;52.86;100745.50;6080657;29;20052;-66
2023/12/12 07:17:23;;;;;;;24.42;9.27;;;;;;;-19.03;50.06;100744.41;6081009;29;20056;-66
2023/12/12 07:20:29;;;;;;;29.63;12.77;;;;;;;-15.02;44.90;100730.03;6081014;29;20495;-66
2023/12/12 07:23:36;;;;;;;30.35;12.43;;;;;;;-12.02;40.84;100746.47;6080417;29;20537;-68
2023/12/12 07:26:42;;;;;;;25.70;12.73;;;;;;;-9.83;39.10;100749.88;6080864;29;20049;-68
2023/12/12 07:29:44;;;;;;;33.58;14.30;;;;;;;-8.21;37.52;100756.91;6080708;29;20051;-66
2023/12/12 07:32:46;;;;;;;36.92;14.40;;;;;;;-6.93;36.49;100748.69;6080197;29;20507;-67
2023/12/12 07:35:47;;;;;;;39.10;14.95;;;;;;;-5.81;36.17;100737.00;6079885;29;20067;-67
2023/12/12 07:38:51;;;;;;;37.53;13.55;;;;;;;-4.59;35.36;100744.34;6080656;29;20403;-67
2023/12/12 07:41:57;;;;;;;28.27;11.95;;;;;;;-3.54;34.14;100744.97;6080430;29;20131;-67
2023/12/12 07:45:02;;;;;;;24.40;12.68;;;;;;;-2.81;33.94;100735.91;6080900;29;20494;-67
2023/12/12 07:48:09;;;;;;;37.65;15.57;;;;;;;-2.16;33.59;100731.34;6080202;29;20519;-67
2023/12/12 07:51:12;;;;;;;24.25;10.80;;;;;;;-1.63;33.02;100733.84;6080230;29;20049;-67
2023/12/12 07:54:14;;;;;;;30.60;11.27;;;;;;;-1.06;32.88;100725.16;6045246;29;20073;-67
2023/12/12 07:57:17;;;;;;;25.73;12.25;;;;;;;-0.49;31.42;100737.09;6034100;29;20046;-67
2023/12/12 08:00:22;;;;;;;25.30;10.77;;;;;;;-0.06;31.11;100723.31;6033890;29;20057;-67
2023/12/12 08:03:26;;;;;;;31.38;13.10;;;;;;;0.25;30.28;100708.94;6033853;29;20042;-67
2023/12/12 08:06:35;;;;;;;31.45;12.55;;;;;;;0.70;29.22;100729.63;6032809;29;20042;-67
2023/12/12 08:09:39;;;;;;;32.35;14.18;;;;;;;1.00;29.48;100713.41;6033693;29;20041;-67
2023/12/12 08:12:48;;;;;;;31.45;14.20;;;;;;;1.32;28.57;100724.88;6033747;29;20057;-68
2023/12/12 08:15:52;;;;;;;31.13;14.55;;;;;;;1.42;28.23;100724.38;6033730;29;20103;-68
2023/12/12 08:18:56;;;;;;;25.83;12.15;;;;;;;1.42;28.16;100732.16;6033634;29;20049;-68
2023/12/12 08:21:58;;;;;;;31.33;12.43;;;;;;;1.29;27.40;100728.25;6032101;29;20073;-67
2023/12/12 08:25:05;;;;;;;29.98;11.90;;;;;;;1.47;27.85;100717.63;6033523;29;20510;-68
2023/12/12 08:28:10;;;;;;;26.73;10.77;;;;;;;1.86;26.75;100726.66;6033568;29;20049;-67
2023/12/12 08:31:19;;;;;;;25.02;11.57;;;;;;;2.01;26.28;100721.94;6033207;29;20056;-66
2023/12/12 08:34:26;;;;;;;22.88;10.73;;;;;;;2.52;26.28;100706.16;6033242;29;20057;-68
2023/12/12 08:37:33;;;;;;;25.55;10.32;;;;;;;3.21;25.22;100717.59;6033161;29;20061;-68
2023/12/12 08:40:35;;;;;;;26.42;12.15;;;;;;;3.53;24.91;100719.28;6032726;29;20140;-68
2023/12/12 08:43:40;;;;;;;23.08;11.18;;;;;;;3.25;25.00;100711.59;6031932;29;20504;-68
2023/12/12 08:46:46;;;;;;;23.35;11.38;;;;;;;2.94;24.89;100715.97;6032786;29;20419;-67
2023/12/12 08:49:50;;;;;;;23.02;11.18;;;;;;;2.80;25.23;100706.91;6031747;29;20049;-67
2023/12/12 08:52:52;;;;;;;25.30;10.95;;;;;;;2.70;24.98;100696.25;6032475;29;20057;-68
2023/12/12 08:55:59;;;;;;;26.50;11.65;;;;;;;2.62;24.48;100691.69;6693700;23;20048;-67
2023/12/12 08:59:00;;;;;;;29.15;12.48;;;;;;;2.57;24.54;100701.94;6070227;29;20477;-68
2023/12/12 09:02:03;;;;;;;26.13;12.45;;;;;;;2.50;24.43;100706.94;6097002;29;20047;-67
2023/12/12 09:05:06;;;;;;;32.13;12.93;;;;;;;2.47;23.98;100708.63;6093594;29;20532;-67
2023/12/12 09:08:13;;;;;;;33.22;12.75;;;;;;;2.47;23.93;100712.94;6078745;29;20444;-67
2023/12/12 09:11:22;;;;;;;42.58;18.45;;;;;;;2.51;24.05;100712.19;6078687;29;20135;-67
2023/12/12 09:14:29;;;;;;;25.67;13.52;;;;;;;2.35;23.38;100707.34;6093265;29;20040;-67
2023/12/12 09:17:33;;;;;;;32.50;14.85;;;;;;;2.25;23.73;100712.28;6101693;29;20044;-68
2023/12/12 09:20:37;;;;;;;34.25;15.05;;;;;;;1.70;23.22;100705.41;6101747;29;20045;-68
2023/12/12 09:23:44;;;;;;;34.13;14.13;;;;;;;1.34;23.90;100705.94;6101429;29;20044;-67
2023/12/12 09:26:50;;;;;;;34.25;14.77;;;;;;;1.24;23.55;100703.84;6101580;29;20040;-68
2023/12/12 09:29:54;;;;;;;35.25;14.45;;;;;;;1.08;24.10;100709.38;6082513;29;20040;-66
2023/12/12 09:33:00;;;;;;;32.75;14.27;;;;;;;0.92;22.75;100699.28;6078248;29;20057;-67
2023/12/12 09:36:08;;;;;;;28.30;13.60;;;;;;;0.73;23.35;100688.25;6077326;29;20037;-68
2023/12/12 09:39:10;;;;;;;33.03;14.98;;;;;;;0.39;24.09;100676.66;6077658;29;20055;-66
2023/12/12 09:42:15;;;;;;;33.45;15.45;;;;;;;0.11;24.08;100702.34;6077942;29;20520;-68
2023/12/12 09:45:22;;;;;;;37.67;16.95;;;;;;;-0.07;23.43;100690.47;6078027;29;20529;-67
2023/12/12 09:48:26;;;;;;;37.08;17.38;;;;;;;-0.25;23.72;100687.16;6077863;29;20041;-67
2023/12/12 09:51:27;;;;;;;43.38;18.20;;;;;;;-0.66;23.20;100688.94;6077926;29;20096;-68
2023/12/12 09:54:36;;;;;;;31.15;16.48;;;;;;;-1.12;24.32;100684.44;6077920;29;20052;-68
2023/12/12 09:57:38;;;;;;;35.10;15.77;;;;;;;-1.62;24.48;100681.38;6083110;29;20433;-67
2023/12/12 10:00:39;;;;;;;32.05;14.90;;;;;;;-2.00;24.40;100697.72;6100845;29;20056;-67
2023/12/12 10:03:44;;;;;;;30.55;14.23;;;;;;;-3.65;24.86;100706.69;6084361;29;20055;-67
2023/12/12 10:06:52;;;;;;;31.52;14.57;;;;;;;-7.55;27.16;100706.94;6100959;29;20040;-67
2023/12/12 10:09:58;;;;;;;37.42;17.60;;;;;;;-11.06;31.20;100703.63;6084602;29;20052;-67
2023/12/12 10:13:00;;;;;;;44.80;18.00;;;;;;;-13.49;33.50;100692.03;6100717;29;20048;-68
2023/12/12 10:16:19;;;;;;;39.13;18.77;;;;;;;-15.20;34.02;100697.94;6100572;29;20048;-67
2023/12/12 10:19:23;;;;;;;47.90;19.58;;;;;;;-16.37;36.37;100696.47;6101147;29;20048;-67
2023/12/12 10:22:24;;;;;;;36.95;15.95;;;;;;;-17.41;36.73;100700.81;6100400;29;20421;-68
2023/12/12 10:25:31;;;;;;;34.78;15.20;;;;;;;-18.23;37.22;100707.97;6083435;29;20044;-68
2023/12/12 10:28:38;;;;;;;39.20;14.00;;;;;;;-19.07;37.18;100714.66;6100501;29;20059;-67
2023/12/12 10:31:45;;;;;;;41.45;14.68;;;;;;;-19.58;37.60;100713.09;6100337;29;20048;-67
2023/12/12 10:34:50;;;;;;;42.05;14.48;;;;;;;-19.89;37.47;100718.75;6100219;29;20067;-67
2023/12/12 10:37:54;;;;;;;34.95;12.88;;;;;;;-20.17;37.66;100720.56;6100130;29;20046;-67
2023/12/12 10:41:15;;;;;;;43.13;16.50;;;;;;;-20.45;37.01;100732.34;6099957;29;20047;-67
2023/12/12 10:44:21;;;;;;;30.90;14.77;;;;;;;-20.71;37.39;100725.94;6100215;29;20040;-67
2023/12/12 10:47:26;;;;;;;45.67;19.90;;;;;;;-20.94;37.75;100716.59;6099770;29;20043;-66
2023/12/12 10:50:32;;;;;;;46.63;17.60;;;;;;;-21.12;38.08;100719.38;6100140;29;20051;-67
2023/12/12 10:53:35;;;;;;;41.85;16.65;;;;;;;-21.37;37.44;100709.00;6099751;29;20047;-66
2023/12/12 10:56:38;;;;;;;41.72;15.38;;;;;;;-21.57;37.94;100718.16;6099705;29;20051;-66
2023/12/12 10:59:45;;;;;;;43.22;15.50;;;;;;;-21.82;37.89;100732.69;6099924;29;20135;-67
2023/12/12 11:02:50;;;;;;;35.58;15.77;;;;;;;-22.00;38.39;100740.41;6100141;29;20123;-68
2023/12/12 11:05:57;;;;;;;36.53;14.57;;;;;;;-22.29;38.04;100729.38;6099991;29;20071;-66
2023/12/12 11:08:59;;;;;;;37.90;13.80;;;;;;;-22.53;38.64;100718.09;6099714;29;20047;-67
2023/12/12 11:12:02;;;;;;;48.45;16.60;;;;;;;-22.68;38.76;100726.16;6099789;29;20429;-66
2023/12/12 11:15:07;;;;;;;38.70;15.98;;;;;;;-22.98;38.31;100715.75;6099301;29;20044;-68
2023/12/12 11:18:09;;;;;;;33.45;13.00;;;;;;;-23.09;38.91;100738.41;6099928;29;20564;-66
2023/12/12 11:21:46;;;;;;;27.80;14.50;;;;;;;-23.39;39.45;100726.34;6100014;29;20048;-67
2023/12/12 11:25:03;;;;;;;36.60;16.20;;;;;;;-23.64;39.99;100718.19;5984850;29;20050;-68
2023/12/12 11:28:12;;;;;;;29.50;13.80;;;;;;;-23.82;39.50;100720.84;6099524;29;20040;-67
2023/12/12 11:31:27;;;;;;;32.75;16.67;;;;;;;-24.02;39.87;100724.84;6099717;29;20991;-68
2023/12/12 11:34:36;;;;;;;41.22;17.75;;;;;;;-24.24;40.55;100717.06;6082462;29;20079;-67
2023/12/12 11:37:42;;;;;;;26.67;13.95;;;;;;;-24.42;39.87;100705.59;6099698;29;20059;-67
2023/12/12 11:41:10;;;;;;;24.17;12.18;;;;;;;-24.55;40.57;100713.03;6067955;29;20044;-67
2023/12/12 11:44:18;;;;;;;34.35;14.70;;;;;;;-24.75;40.54;100709.53;6099461;29;20549;-67
2023/12/12 11:47:30;;;;;;;26.73;12.68;;;;;;;-24.87;40.51;100710.38;6099271;29;20052;-67
2023/12/12 11:50:33;;;;;;;36.72;13.18;;;;;;;-25.01;40.72;100713.50;6099167;29;20048;-67
2023/12/12 11:53:39;;;;;;;17.58;10.48;;;;;;;-25.15;41.25;100719.16;6098884;29;20434;-67
2023/12/12 11:56:40;;;;;;;26.27;12.63;;;;;;;-25.31;40.73;100722.72;6098801;29;20079;-67
2023/12/12 11:59:44;;;;;;;28.83;14.13;;;;;;;-25.46;41.40;100724.94;6103063;29;20044;-67
2023/12/12 12:02:49;;;;;;;29.33;12.27;;;;;;;-25.57;41.11;100727.56;6103750;29;20048;-67
2023/12/12 12:05:52;;;;;;;28.42;10.13;;;;;;;-25.63;41.10;100721.75;6102742;29;20142;-67
2023/12/12 12:08:54;;;;;;;;;;;;;;;-25.65;41.26;100719.06;6104442;29;20052;-66
2023/12/12 12:11:58;;;;;;;15.93;6.82;;;;;;;-25.69;41.65;100725.91;6103623;29;19962;-67
2023/12/12 12:15:09;;;;;;;26.88;8.38;;;;;;;-25.80;41.71;100721.94;6103357;29;20130;-68
2023/12/12 12:18:27;;;;;;;27.05;8.93;;;;;;;-25.93;41.94;100729.31;6103668;29;20506;-68
2023/12/12 12:21:31;;;;;;;26.38;8.40;;;;;;;-25.94;42.83;100732.47;6103139;29;20545;-67
2023/12/12 12:24:44;;;;;;;11.18;5.50;;;;;;;-26.15;42.67;100741.91;6102937;29;20040;-66
2023/12/12 12:27:56;;;;;;;25.98;10.82;;;;;;;-26.33;42.49;100733.72;6085994;29;20056;-66
2023/12/12 12:30:58;;;;;;;28.33;10.90;;;;;;;-26.33;42.79;100752.69;6103370;29;20572;-68
2023/12/12 12:33:59;;;;;;;30.08;13.77;;;;;;;-26.44;43.43;100748.69;6103097;29;20051;-67
2023/12/12 12:37:02;;;;;;;28.73;11.30;;;;;;;-26.55;43.42;100742.25;6102750;29;20048;-67
2023/12/12 12:40:07;;;;;;;28.95;10.20;;;;;;;-26.62;43.48;100759.47;6102791;29;20052;-68
2023/12/12 12:43:17;;;;;;;34.40;13.82;;;;;;;-26.69;43.60;100758.38;6102552;29;20047;-67
2023/12/12 12:46:19;;;;;;;9.80;6.30;;;;;;;-26.76;43.34;100763.16;6102319;29;20055;-66
2023/12/12 12:49:22;;;;;;;27.95;12.48;;;;;;;-26.70;43.62;100772.34;6102579;29;20040;-67
2023/12/12 12:52:29;;;;;;;27.70;11.07;;;;;;;-27.05;43.81;100730.22;6102546;29;20040;-67
2023/12/12 12:55:30;;;;;;;24.95;10.30;;;;;;;-26.90;43.58;100756.25;6101768;29;20059;-67
2023/12/12 12:58:33;;;;;;;21.73;8.98;;;;;;;-26.91;43.62;100755.38;6102001;29;20051;-67
2023/12/12 13:01:40;;;;;;;22.73;10.38;;;;;;;-27.01;44.22;100742.34;6085250;29;20051;-67
2023/12/12 13:04:44;;;;;;;14.60;7.85;;;;;;;-26.96;44.13;100760.34;6085580;29;20048;-67
2023/12/12 13:07:48;;;;;;;20.00;9.00;;;;;;;-27.04;43.73;100756.78;6102201;29;20048;-67
2023/12/12 13:10:50;;;;;;;17.27;9.07;;;;;;;-27.12;43.50;100752.31;6101683;29;20060;-66
2023/12/12 13:13:54;;;;;;;21.30;9.57;;;;;;;-27.18;44.55;100751.47;6101648;29;20137;-68
2023/12/12 13:17:03;;;;;;;9.95;6.50;;;;;;;-27.14;44.77;100759.53;6102089;29;20040;-67
2023/12/12 13:20:11;;;;;;;11.57;6.03;;;;;;;-27.15;44.26;100742.91;6101835;29;20044;-67
2023/12/12 13:23:16;;;;;;;11.40;5.65;;;;;;;-27.13;44.32;100745.56;6101708;29;20055;-67
2023/12/12 13:26:23;;;;;;;7.78;4.90;;;;;;;-27.21;44.12;100749.47;6084678;29;20249;-67
2023/12/12 13:29:25;;;;;;;12.90;5.97;;;;;;;-27.37;44.36;100726.56;6101125;29;20465;-67
2023/12/12 13:32:26;;;;;;;14.75;5.72;;;;;;;-27.25;43.84;100737.34;6101383;29;20056;-67
2023/12/12 13:35:31;;;;;;;12.68;6.63;;;;;;;-27.25;44.31;100735.75;6101312;29;20048;-67
2023/12/12 13:38:34;;;;;;;10.98;6.15;;;;;;;-27.28;44.47;100732.84;6101542;29;20043;-67
2023/12/12 13:41:36;;;;;;;16.98;7.25;;;;;;;-27.30;44.57;100731.72;6100836;29;20067;-68
2023/12/12 13:44:41;;;;;;;25.35;7.93;;;;;;;-27.38;44.53;100722.28;6101297;29;20044;-66
2023/12/12 13:47:42;;;;;;;;;;;;;;;-27.33;44.13;100733.75;6102065;29;20214;-66
2023/12/12 13:50:44;;;;;;;13.55;5.85;;;;;;;-27.36;43.98;100735.81;6101146;29;20092;-67
2023/12/12 13:53:46;;;;;;;14.48;6.63;;;;;;;-27.41;44.72;100739.19;6101249;29;20599;-67
2023/12/12 13:56:50;;;;;;;18.38;9.00;;;;;;;-27.48;43.79;100743.94;6100763;29;20103;-67
2023/12/12 13:59:55;;;;;;;27.17;10.00;;;;;;;-27.56;43.89;100734.53;6100768;29;20047;-67